sensor_id;sensor_type;location;lat;lon;timestamp;P1;durP1;ratioP1;P2;durP2;ratioP2
10313;SDS011;5202;49.138;10.090;2023-11-18T00:00:32;10.20;;;9.23;;
10313;SDS011;5202;49.138;10.090;2023-11-18T00:03:01;8.83;;;8.10;;
10313;SDS011;5202;49.138;10.090;2023-11-18T00:05:30;9.50;;;8.33;;
10313;SDS011;5202;49.138;10.090;2023-11-18T00:08:01;9.20;;;8.40;;
10313;SDS011;5202;49.138;10.090;2023-11-18T00:10:31;8.80;;;8.00;;
10313;SDS011;5202;49.138;10.090;2023-11-18T00:12:59;9.70;;;7.87;;
10313;SDS011;5202;49.138;10.090;2023-11-18T00:15:30;8.37;;;7.67;;
10313;SDS011;5202;49.138;10.090;2023-11-18T00:18:01;8.60;;;7.80;;
10313;SDS011;5202;49.138;10.090;2023-11-18T00:20:30;7.73;;;7.03;;
10313;SDS011;5202;49.138;10.090;2023-11-18T00:23:02;8.67;;;7.87;;
10313;SDS011;5202;49.138;10.090;2023-11-18T00:25:31;9.17;;;8.37;;
10313;SDS011;5202;49.138;10.090;2023-11-18T00:28:03;8.43;;;7.63;;
10313;SDS011;5202;49.138;10.090;2023-11-18T00:30:33;8.90;;;8.03;;
10313;SDS011;5202;49.138;10.090;2023-11-18T00:33:02;8.93;;;8.13;;
10313;SDS011;5202;49.138;10.090;2023-11-18T00:35:37;9.23;;;8.43;;
10313;SDS011;5202;49.138;10.090;2023-11-18T00:38:06;9.90;;;8.90;;
10313;SDS011;5202;49.138;10.090;2023-11-18T00:40:34;9.90;;;8.90;;
10313;SDS011;5202;49.138;10.090;2023-11-18T00:43:03;9.27;;;8.23;;
10313;SDS011;5202;49.138;10.090;2023-11-18T00:45:32;10.23;;;9.33;;
10313;SDS011;5202;49.138;10.090;2023-11-18T00:48:01;10.73;;;9.73;;
10313;SDS011;5202;49.138;10.090;2023-11-18T00:50:31;10.27;;;9.17;;
10313;SDS011;5202;49.138;10.090;2023-11-18T00:53:01;11.37;;;9.60;;
10313;SDS011;5202;49.138;10.090;2023-11-18T00:55:32;11.50;;;10.40;;
10313;SDS011;5202;49.138;10.090;2023-11-18T00:58:00;12.10;;;10.90;;
10313;SDS011;5202;49.138;10.090;2023-11-18T01:00:28;11.50;;;10.30;;
10313;SDS011;5202;49.138;10.090;2023-11-18T01:03:00;11.57;;;10.37;;
10313;SDS011;5202;49.138;10.090;2023-11-18T01:05:29;11.10;;;10.10;;
10313;SDS011;5202;49.138;10.090;2023-11-18T01:07:58;11.23;;;10.20;;
10313;SDS011;5202;49.138;10.090;2023-11-18T01:10:28;10.67;;;9.67;;
10313;SDS011;5202;49.138;10.090;2023-11-18T01:12:56;11.67;;;10.50;;
10313;SDS011;5202;49.138;10.090;2023-11-18T01:15:25;11.40;;;10.40;;
10313;SDS011;5202;49.138;10.090;2023-11-18T01:17:54;11.80;;;10.70;;
10313;SDS011;5202;49.138;10.090;2023-11-18T01:20:22;11.60;;;10.40;;
10313;SDS011;5202;49.138;10.090;2023-11-18T01:22:51;12.37;;;11.27;;
10313;SDS011;5202;49.138;10.090;2023-11-18T01:25:19;11.23;;;10.13;;
10313;SDS011;5202;49.138;10.090;2023-11-18T01:27:49;11.70;;;10.60;;
10313;SDS011;5202;49.138;10.090;2023-11-18T01:30:18;11.87;;;10.77;;
10313;SDS011;5202;49.138;10.090;2023-11-18T01:32:46;12.60;;;11.40;;
10313;SDS011;5202;49.138;10.090;2023-11-18T01:35:15;12.30;;;11.20;;
10313;SDS011;5202;49.138;10.090;2023-11-18T01:37:44;13.07;;;11.87;;
10313;SDS011;5202;49.138;10.090;2023-11-18T01:40:15;13.67;;;12.33;;
10313;SDS011;5202;49.138;10.090;2023-11-18T01:42:44;12.83;;;11.53;;
10313;SDS011;5202;49.138;10.090;2023-11-18T01:45:14;13.43;;;12.13;;
10313;SDS011;5202;49.138;10.090;2023-11-18T01:47:44;15.23;;;13.40;;
10313;SDS011;5202;49.138;10.090;2023-11-18T01:50:15;14.33;;;12.93;;
10313;SDS011;5202;49.138;10.090;2023-11-18T01:52:45;14.70;;;13.03;;
10313;SDS011;5202;49.138;10.090;2023-11-18T01:55:15;15.73;;;14.17;;
10313;SDS011;5202;49.138;10.090;2023-11-18T01:57:43;15.57;;;13.97;;
10313;SDS011;5202;49.138;10.090;2023-11-18T02:00:12;17.87;;;14.53;;
10313;SDS011;5202;49.138;10.090;2023-11-18T02:02:44;15.53;;;13.97;;
10313;SDS011;5202;49.138;10.090;2023-11-18T02:05:14;15.63;;;14.03;;
10313;SDS011;5202;49.138;10.090;2023-11-18T02:07:45;16.93;;;15.23;;
10313;SDS011;5202;49.138;10.090;2023-11-18T02:10:13;17.00;;;15.13;;
10313;SDS011;5202;49.138;10.090;2023-11-18T02:12:46;17.37;;;15.57;;
10313;SDS011;5202;49.138;10.090;2023-11-18T02:15:25;17.60;;;15.50;;
10313;SDS011;5202;49.138;10.090;2023-11-18T02:17:54;17.93;;;15.77;;
10313;SDS011;5202;49.138;10.090;2023-11-18T02:20:25;17.77;;;15.77;;
10313;SDS011;5202;49.138;10.090;2023-11-18T02:22:55;17.00;;;15.20;;
10313;SDS011;5202;49.138;10.090;2023-11-18T02:25:25;18.40;;;16.43;;
10313;SDS011;5202;49.138;10.090;2023-11-18T02:27:57;18.33;;;16.17;;
10313;SDS011;5202;49.138;10.090;2023-11-18T02:30:25;16.37;;;14.67;;
10313;SDS011;5202;49.138;10.090;2023-11-18T02:32:58;15.73;;;14.10;;
10313;SDS011;5202;49.138;10.090;2023-11-18T02:35:32;15.73;;;14.13;;
10313;SDS011;5202;49.138;10.090;2023-11-18T02:38:05;15.93;;;13.53;;
10313;SDS011;5202;49.138;10.090;2023-11-18T02:40:37;14.77;;;13.30;;
10313;SDS011;5202;49.138;10.090;2023-11-18T02:43:12;15.87;;;13.83;;
10313;SDS011;5202;49.138;10.090;2023-11-18T02:45:41;16.03;;;14.33;;
10313;SDS011;5202;49.138;10.090;2023-11-18T02:48:10;15.03;;;13.47;;
10313;SDS011;5202;49.138;10.090;2023-11-18T02:50:39;14.27;;;12.87;;
10313;SDS011;5202;49.138;10.090;2023-11-18T02:53:09;14.50;;;13.00;;
10313;SDS011;5202;49.138;10.090;2023-11-18T02:55:37;14.70;;;13.20;;
10313;SDS011;5202;49.138;10.090;2023-11-18T02:58:07;16.03;;;14.37;;
10313;SDS011;5202;49.138;10.090;2023-11-18T03:00:37;15.80;;;14.10;;
10313;SDS011;5202;49.138;10.090;2023-11-18T03:03:06;17.00;;;15.20;;
10313;SDS011;5202;49.138;10.090;2023-11-18T03:05:34;17.37;;;14.87;;
10313;SDS011;5202;49.138;10.090;2023-11-18T03:08:07;18.27;;;16.33;;
10313;SDS011;5202;49.138;10.090;2023-11-18T03:10:36;17.40;;;14.77;;
10313;SDS011;5202;49.138;10.090;2023-11-18T03:13:04;15.47;;;13.87;;
10313;SDS011;5202;49.138;10.090;2023-11-18T03:15:33;16.73;;;14.93;;
10313;SDS011;5202;49.138;10.090;2023-11-18T03:18:04;16.30;;;14.30;;
10313;SDS011;5202;49.138;10.090;2023-11-18T03:20:33;15.37;;;13.83;;
10313;SDS011;5202;49.138;10.090;2023-11-18T03:23:02;15.07;;;13.57;;
10313;SDS011;5202;49.138;10.090;2023-11-18T03:25:34;16.33;;;14.03;;
10313;SDS011;5202;49.138;10.090;2023-11-18T03:28:04;14.17;;;12.67;;
10313;SDS011;5202;49.138;10.090;2023-11-18T03:30:33;16.73;;;13.37;;
10313;SDS011;5202;49.138;10.090;2023-11-18T03:33:05;16.90;;;14.83;;
10313;SDS011;5202;49.138;10.090;2023-11-18T03:35:37;16.17;;;14.47;;
10313;SDS011;5202;49.138;10.090;2023-11-18T03:38:06;15.60;;;14.00;;
10313;SDS011;5202;49.138;10.090;2023-11-18T03:40:34;15.20;;;13.60;;
10313;SDS011;5202;49.138;10.090;2023-11-18T03:43:03;15.80;;;14.13;;
10313;SDS011;5202;49.138;10.090;2023-11-18T03:45:31;16.17;;;14.57;;
10313;SDS011;5202;49.138;10.090;2023-11-18T03:47:59;14.53;;;13.10;;
10313;SDS011;5202;49.138;10.090;2023-11-18T03:50:29;15.17;;;13.57;;
10313;SDS011;5202;49.138;10.090;2023-11-18T03:52:58;15.93;;;14.23;;
10313;SDS011;5202;49.138;10.090;2023-11-18T03:55:28;15.83;;;14.13;;
10313;SDS011;5202;49.138;10.090;2023-11-18T03:57:57;14.87;;;13.30;;
10313;SDS011;5202;49.138;10.090;2023-11-18T04:00:25;16.60;;;13.97;;
10313;SDS011;5202;49.138;10.090;2023-11-18T04:02:56;16.03;;;14.43;;
10313;SDS011;5202;49.138;10.090;2023-11-18T04:05:24;92.60;;;50.03;;
10313;SDS011;5202;49.138;10.090;2023-11-18T04:07:54;29.43;;;24.40;;
10313;SDS011;5202;49.138;10.090;2023-11-18T04:10:23;21.57;;;16.70;;
10313;SDS011;5202;49.138;10.090;2023-11-18T04:12:51;16.83;;;15.10;;
10313;SDS011;5202;49.138;10.090;2023-11-18T04:15:19;16.30;;;14.60;;
10313;SDS011;5202;49.138;10.090;2023-11-18T04:17:48;18.07;;;16.27;;
10313;SDS011;5202;49.138;10.090;2023-11-18T04:20:17;16.03;;;14.43;;
10313;SDS011;5202;49.138;10.090;2023-11-18T04:22:45;15.90;;;14.33;;
10313;SDS011;5202;49.138;10.090;2023-11-18T04:25:15;16.80;;;15.00;;
10313;SDS011;5202;49.138;10.090;2023-11-18T04:27:43;16.93;;;15.33;;
10313;SDS011;5202;49.138;10.090;2023-11-18T04:30:13;18.00;;;16.10;;
10313;SDS011;5202;49.138;10.090;2023-11-18T04:32:41;15.83;;;14.27;;
10313;SDS011;5202;49.138;10.090;2023-11-18T04:35:10;16.63;;;14.40;;
10313;SDS011;5202;49.138;10.090;2023-11-18T04:37:40;15.80;;;14.07;;
10313;SDS011;5202;49.138;10.090;2023-11-18T04:40:10;16.20;;;14.10;;
10313;SDS011;5202;49.138;10.090;2023-11-18T04:42:41;17.17;;;14.10;;
10313;SDS011;5202;49.138;10.090;2023-11-18T04:45:10;14.90;;;13.30;;
10313;SDS011;5202;49.138;10.090;2023-11-18T04:47:41;16.07;;;14.37;;
10313;SDS011;5202;49.138;10.090;2023-11-18T04:50:11;16.10;;;14.47;;
10313;SDS011;5202;49.138;10.090;2023-11-18T04:52:40;16.30;;;13.63;;
10313;SDS011;5202;49.138;10.090;2023-11-18T04:55:09;16.97;;;13.33;;
10313;SDS011;5202;49.138;10.090;2023-11-18T04:57:41;16.60;;;13.43;;
10313;SDS011;5202;49.138;10.090;2023-11-18T05:00:10;15.80;;;13.43;;
10313;SDS011;5202;49.138;10.090;2023-11-18T05:02:43;15.30;;;13.70;;
10313;SDS011;5202;49.138;10.090;2023-11-18T05:05:15;15.10;;;13.07;;
10313;SDS011;5202;49.138;10.090;2023-11-18T05:07:44;15.63;;;13.67;;
10313;SDS011;5202;49.138;10.090;2023-11-18T05:10:13;18.47;;;14.87;;
10313;SDS011;5202;49.138;10.090;2023-11-18T05:12:43;16.20;;;13.97;;
10313;SDS011;5202;49.138;10.090;2023-11-18T05:15:11;16.03;;;14.27;;
10313;SDS011;5202;49.138;10.090;2023-11-18T05:17:39;16.10;;;12.63;;
10313;SDS011;5202;49.138;10.090;2023-11-18T05:20:08;18.00;;;14.03;;
10313;SDS011;5202;49.138;10.090;2023-11-18T05:22:38;18.27;;;14.33;;
10313;SDS011;5202;49.138;10.090;2023-11-18T05:25:06;17.33;;;14.23;;
10313;SDS011;5202;49.138;10.090;2023-11-18T05:27:36;16.17;;;13.80;;
10313;SDS011;5202;49.138;10.090;2023-11-18T05:30:08;14.50;;;13.00;;
10313;SDS011;5202;49.138;10.090;2023-11-18T05:32:38;16.63;;;13.07;;
10313;SDS011;5202;49.138;10.090;2023-11-18T05:35:07;14.40;;;12.83;;
10313;SDS011;5202;49.138;10.090;2023-11-18T05:37:37;14.73;;;11.97;;
10313;SDS011;5202;49.138;10.090;2023-11-18T05:40:08;15.30;;;12.67;;
10313;SDS011;5202;49.138;10.090;2023-11-18T05:42:42;13.20;;;11.83;;
10313;SDS011;5202;49.138;10.090;2023-11-18T05:45:14;13.80;;;12.40;;
10313;SDS011;5202;49.138;10.090;2023-11-18T05:47:57;15.30;;;12.53;;
10313;SDS011;5202;49.138;10.090;2023-11-18T05:50:26;14.80;;;12.13;;
10313;SDS011;5202;49.138;10.090;2023-11-18T05:52:54;14.93;;;12.23;;
10313;SDS011;5202;49.138;10.090;2023-11-18T05:55:22;13.17;;;11.87;;
10313;SDS011;5202;49.138;10.090;2023-11-18T05:57:51;14.73;;;11.57;;
10313;SDS011;5202;49.138;10.090;2023-11-18T06:00:21;16.70;;;12.40;;
10313;SDS011;5202;49.138;10.090;2023-11-18T06:03:01;16.23;;;12.70;;
10313;SDS011;5202;49.138;10.090;2023-11-18T06:05:30;14.57;;;12.97;;
10313;SDS011;5202;49.138;10.090;2023-11-18T06:08:02;13.77;;;12.37;;
10313;SDS011;5202;49.138;10.090;2023-11-18T06:10:31;13.37;;;12.07;;
10313;SDS011;5202;49.138;10.090;2023-11-18T06:13:00;14.73;;;13.00;;
10313;SDS011;5202;49.138;10.090;2023-11-18T06:15:32;14.63;;;12.73;;
10313;SDS011;5202;49.138;10.090;2023-11-18T06:18:02;14.40;;;12.90;;
10313;SDS011;5202;49.138;10.090;2023-11-18T06:20:33;14.83;;;13.20;;
10313;SDS011;5202;49.138;10.090;2023-11-18T06:23:05;15.17;;;13.40;;
10313;SDS011;5202;49.138;10.090;2023-11-18T06:25:33;94.57;;;54.53;;
10313;SDS011;5202;49.138;10.090;2023-11-18T06:28:03;22.57;;;19.20;;
10313;SDS011;5202;49.138;10.090;2023-11-18T06:30:35;15.93;;;14.27;;
10313;SDS011;5202;49.138;10.090;2023-11-18T06:33:06;16.53;;;14.30;;
10313;SDS011;5202;49.138;10.090;2023-11-18T06:35:36;15.27;;;13.60;;
10313;SDS011;5202;49.138;10.090;2023-11-18T06:38:06;16.90;;;15.20;;
10313;SDS011;5202;49.138;10.090;2023-11-18T06:40:39;15.33;;;13.73;;
10313;SDS011;5202;49.138;10.090;2023-11-18T06:43:08;17.67;;;14.63;;
10313;SDS011;5202;49.138;10.090;2023-11-18T06:45:43;15.07;;;13.57;;
10313;SDS011;5202;49.138;10.090;2023-11-18T06:48:11;13.63;;;12.23;;
10313;SDS011;5202;49.138;10.090;2023-11-18T06:50:41;14.77;;;13.27;;
10313;SDS011;5202;49.138;10.090;2023-11-18T06:53:11;14.63;;;13.13;;
10313;SDS011;5202;49.138;10.090;2023-11-18T06:55:39;14.93;;;13.37;;
10313;SDS011;5202;49.138;10.090;2023-11-18T06:58:08;12.90;;;11.60;;
10313;SDS011;5202;49.138;10.090;2023-11-18T07:00:37;16.67;;;12.97;;
10313;SDS011;5202;49.138;10.090;2023-11-18T07:03:06;13.20;;;11.90;;
10313;SDS011;5202;49.138;10.090;2023-11-18T07:05:45;13.93;;;12.43;;
10313;SDS011;5202;49.138;10.090;2023-11-18T07:08:24;13.53;;;12.13;;
10313;SDS011;5202;49.138;10.090;2023-11-18T07:10:52;13.13;;;11.83;;
10313;SDS011;5202;49.138;10.090;2023-11-18T07:13:21;12.57;;;11.27;;
10313;SDS011;5202;49.138;10.090;2023-11-18T07:15:50;14.80;;;13.23;;
10313;SDS011;5202;49.138;10.090;2023-11-18T07:18:21;13.53;;;12.20;;
10313;SDS011;5202;49.138;10.090;2023-11-18T07:20:49;14.03;;;12.53;;
10313;SDS011;5202;49.138;10.090;2023-11-18T07:23:19;16.37;;;13.17;;
10313;SDS011;5202;49.138;10.090;2023-11-18T07:25:47;15.37;;;13.77;;
10313;SDS011;5202;49.138;10.090;2023-11-18T07:28:16;14.57;;;12.70;;
10313;SDS011;5202;49.138;10.090;2023-11-18T07:30:44;14.30;;;12.90;;
10313;SDS011;5202;49.138;10.090;2023-11-18T07:33:14;13.43;;;12.13;;
10313;SDS011;5202;49.138;10.090;2023-11-18T07:35:44;14.27;;;12.47;;
10313;SDS011;5202;49.138;10.090;2023-11-18T07:38:15;14.23;;;12.73;;
10313;SDS011;5202;49.138;10.090;2023-11-18T07:40:46;16.73;;;13.90;;
10313;SDS011;5202;49.138;10.090;2023-11-18T07:43:15;14.40;;;13.00;;
10313;SDS011;5202;49.138;10.090;2023-11-18T07:45:44;15.33;;;13.10;;
10313;SDS011;5202;49.138;10.090;2023-11-18T07:48:16;16.17;;;14.30;;
10313;SDS011;5202;49.138;10.090;2023-11-18T07:50:46;15.63;;;13.40;;
10313;SDS011;5202;49.138;10.090;2023-11-18T07:53:15;15.30;;;13.43;;
10313;SDS011;5202;49.138;10.090;2023-11-18T07:55:43;14.63;;;12.63;;
10313;SDS011;5202;49.138;10.090;2023-11-18T07:58:17;15.60;;;13.90;;
10313;SDS011;5202;49.138;10.090;2023-11-18T08:00:47;18.83;;;16.57;;
10313;SDS011;5202;49.138;10.090;2023-11-18T08:03:16;18.07;;;15.37;;
10313;SDS011;5202;49.138;10.090;2023-11-18T08:05:48;18.73;;;13.07;;
10313;SDS011;5202;49.138;10.090;2023-11-18T08:08:17;13.70;;;11.73;;
10313;SDS011;5202;49.138;10.090;2023-11-18T08:10:47;14.27;;;12.80;;
10313;SDS011;5202;49.138;10.090;2023-11-18T08:13:17;13.40;;;11.97;;
10313;SDS011;5202;49.138;10.090;2023-11-18T08:15:45;13.40;;;10.37;;
10313;SDS011;5202;49.138;10.090;2023-11-18T08:18:14;11.50;;;10.30;;
10313;SDS011;5202;49.138;10.090;2023-11-18T08:20:43;12.43;;;11.00;;
10313;SDS011;5202;49.138;10.090;2023-11-18T08:23:13;11.43;;;10.20;;
10313;SDS011;5202;49.138;10.090;2023-11-18T08:25:41;11.70;;;10.50;;
10313;SDS011;5202;49.138;10.090;2023-11-18T08:28:10;34.17;;;23.57;;
10313;SDS011;5202;49.138;10.090;2023-11-18T08:30:40;12.03;;;10.47;;
10313;SDS011;5202;49.138;10.090;2023-11-18T08:33:09;11.60;;;10.40;;
10313;SDS011;5202;49.138;10.090;2023-11-18T08:35:37;11.77;;;10.57;;
10313;SDS011;5202;49.138;10.090;2023-11-18T08:38:07;11.60;;;9.63;;
10313;SDS011;5202;49.138;10.090;2023-11-18T08:40:40;10.87;;;9.77;;
10313;SDS011;5202;49.138;10.090;2023-11-18T08:43:10;11.17;;;9.97;;
10313;SDS011;5202;49.138;10.090;2023-11-18T08:45:38;10.37;;;9.23;;
10313;SDS011;5202;49.138;10.090;2023-11-18T08:48:08;8.80;;;7.83;;
10313;SDS011;5202;49.138;10.090;2023-11-18T08:50:37;9.37;;;8.30;;
10313;SDS011;5202;49.138;10.090;2023-11-18T08:53:07;8.77;;;7.87;;
10313;SDS011;5202;49.138;10.090;2023-11-18T08:55:40;10.13;;;8.50;;
10313;SDS011;5202;49.138;10.090;2023-11-18T08:58:17;9.13;;;7.57;;
10313;SDS011;5202;49.138;10.090;2023-11-18T09:00:48;8.43;;;7.53;;
10313;SDS011;5202;49.138;10.090;2023-11-18T09:03:22;8.73;;;7.60;;
10313;SDS011;5202;49.138;10.090;2023-11-18T09:06:10;10.83;;;8.00;;
10313;SDS011;5202;49.138;10.090;2023-11-18T09:08:46;8.10;;;7.30;;
10313;SDS011;5202;49.138;10.090;2023-11-18T09:11:22;8.57;;;7.77;;
10313;SDS011;5202;49.138;10.090;2023-11-18T09:13:53;8.73;;;7.90;;
10313;SDS011;5202;49.138;10.090;2023-11-18T09:16:27;8.43;;;7.40;;
10313;SDS011;5202;49.138;10.090;2023-11-18T09:18:58;7.73;;;6.93;;
10313;SDS011;5202;49.138;10.090;2023-11-18T09:21:29;8.07;;;6.70;;
10313;SDS011;5202;49.138;10.090;2023-11-18T09:24:02;7.30;;;6.53;;
10313;SDS011;5202;49.138;10.090;2023-11-18T09:26:37;7.40;;;6.50;;
10313;SDS011;5202;49.138;10.090;2023-11-18T09:29:06;7.73;;;6.80;;
10313;SDS011;5202;49.138;10.090;2023-11-18T09:31:36;6.83;;;5.97;;
10313;SDS011;5202;49.138;10.090;2023-11-18T09:34:08;6.80;;;6.00;;
10313;SDS011;5202;49.138;10.090;2023-11-18T09:36:42;6.57;;;5.83;;
10313;SDS011;5202;49.138;10.090;2023-11-18T09:39:11;6.50;;;5.90;;
10313;SDS011;5202;49.138;10.090;2023-11-18T09:41:57;6.37;;;5.77;;
10313;SDS011;5202;49.138;10.090;2023-11-18T09:44:29;8.07;;;6.03;;
10313;SDS011;5202;49.138;10.090;2023-11-18T09:46:59;7.03;;;5.23;;
10313;SDS011;5202;49.138;10.090;2023-11-18T09:49:40;6.10;;;5.50;;
10313;SDS011;5202;49.138;10.090;2023-11-18T09:52:15;5.60;;;5.10;;
10313;SDS011;5202;49.138;10.090;2023-11-18T09:54:50;6.87;;;5.57;;
10313;SDS011;5202;49.138;10.090;2023-11-18T09:57:32;7.23;;;5.10;;
10313;SDS011;5202;49.138;10.090;2023-11-18T10:00:07;3.70;;;3.37;;
10313;SDS011;5202;49.138;10.090;2023-11-18T10:02:48;4.17;;;2.80;;
10313;SDS011;5202;49.138;10.090;2023-11-18T10:05:19;3.57;;;2.80;;
10313;SDS011;5202;49.138;10.090;2023-11-18T10:07:49;3.83;;;3.13;;
10313;SDS011;5202;49.138;10.090;2023-11-18T10:10:19;5.67;;;3.90;;
10313;SDS011;5202;49.138;10.090;2023-11-18T10:12:50;3.50;;;2.90;;
10313;SDS011;5202;49.138;10.090;2023-11-18T10:15:22;3.90;;;3.30;;
10313;SDS011;5202;49.138;10.090;2023-11-18T10:17:52;2.97;;;2.63;;
10313;SDS011;5202;49.138;10.090;2023-11-18T10:23:15;3.17;;;2.20;;
10313;SDS011;5202;49.138;10.090;2023-11-18T10:25:48;2.70;;;2.13;;
10313;SDS011;5202;49.138;10.090;2023-11-18T10:28:24;3.40;;;2.43;;
10313;SDS011;5202;49.138;10.090;2023-11-18T10:30:55;2.97;;;2.23;;
10313;SDS011;5202;49.138;10.090;2023-11-18T10:33:25;3.70;;;2.83;;
10313;SDS011;5202;49.138;10.090;2023-11-18T10:35:58;4.73;;;3.10;;
10313;SDS011;5202;49.138;10.090;2023-11-18T10:38:30;2.97;;;2.30;;
10313;SDS011;5202;49.138;10.090;2023-11-18T10:41:03;3.37;;;2.70;;
10313;SDS011;5202;49.138;10.090;2023-11-18T10:43:35;3.23;;;2.20;;
10313;SDS011;5202;49.138;10.090;2023-11-18T10:46:04;4.90;;;2.67;;
10313;SDS011;5202;49.138;10.090;2023-11-18T10:48:42;2.83;;;2.40;;
10313;SDS011;5202;49.138;10.090;2023-11-18T10:51:14;3.30;;;2.00;;
10313;SDS011;5202;49.138;10.090;2023-11-18T10:53:46;2.93;;;1.83;;
10313;SDS011;5202;49.138;10.090;2023-11-18T10:56:25;2.30;;;2.10;;
10313;SDS011;5202;49.138;10.090;2023-11-18T10:58:57;2.33;;;2.10;;
10313;SDS011;5202;49.138;10.090;2023-11-18T11:01:27;2.80;;;2.30;;
10313;SDS011;5202;49.138;10.090;2023-11-18T11:04:09;3.33;;;2.20;;
10313;SDS011;5202;49.138;10.090;2023-11-18T11:06:42;3.77;;;2.13;;
10313;SDS011;5202;49.138;10.090;2023-11-18T11:09:18;3.87;;;2.10;;
10313;SDS011;5202;49.138;10.090;2023-11-18T11:11:53;2.97;;;2.33;;
10313;SDS011;5202;49.138;10.090;2023-11-18T11:14:29;3.43;;;2.40;;
10313;SDS011;5202;49.138;10.090;2023-11-18T11:17:05;3.33;;;2.10;;
10313;SDS011;5202;49.138;10.090;2023-11-18T11:19:40;4.37;;;2.23;;
10313;SDS011;5202;49.138;10.090;2023-11-18T11:22:24;4.60;;;2.03;;
10313;SDS011;5202;49.138;10.090;2023-11-18T11:25:16;4.57;;;2.20;;
10313;SDS011;5202;49.138;10.090;2023-11-18T11:27:54;4.07;;;2.23;;
10313;SDS011;5202;49.138;10.090;2023-11-18T11:30:31;6.63;;;2.40;;
10313;SDS011;5202;49.138;10.090;2023-11-18T11:33:08;2.60;;;2.10;;
10313;SDS011;5202;49.138;10.090;2023-11-18T11:35:53;3.73;;;2.33;;
10313;SDS011;5202;49.138;10.090;2023-11-18T11:38:25;3.63;;;2.40;;
10313;SDS011;5202;49.138;10.090;2023-11-18T11:40:55;2.30;;;2.10;;
10313;SDS011;5202;49.138;10.090;2023-11-18T11:43:28;3.20;;;2.30;;
10313;SDS011;5202;49.138;10.090;2023-11-18T11:46:02;3.33;;;2.10;;
10313;SDS011;5202;49.138;10.090;2023-11-18T11:48:37;3.00;;;1.70;;
10313;SDS011;5202;49.138;10.090;2023-11-18T11:51:12;3.53;;;1.93;;
10313;SDS011;5202;49.138;10.090;2023-11-18T11:53:55;3.10;;;2.10;;
10313;SDS011;5202;49.138;10.090;2023-11-18T11:56:40;2.40;;;2.13;;
10313;SDS011;5202;49.138;10.090;2023-11-18T11:59:10;3.43;;;1.93;;
10313;SDS011;5202;49.138;10.090;2023-11-18T12:01:40;4.73;;;2.17;;
10313;SDS011;5202;49.138;10.090;2023-11-18T12:04:14;3.67;;;1.70;;
10313;SDS011;5202;49.138;10.090;2023-11-18T12:06:50;2.03;;;1.80;;
10313;SDS011;5202;49.138;10.090;2023-11-18T12:09:39;3.70;;;2.10;;
10313;SDS011;5202;49.138;10.090;2023-11-18T12:12:16;2.90;;;1.90;;
10313;SDS011;5202;49.138;10.090;2023-11-18T12:14:49;2.53;;;1.53;;
10313;SDS011;5202;49.138;10.090;2023-11-18T12:17:20;2.33;;;1.80;;
10313;SDS011;5202;49.138;10.090;2023-11-18T12:19:49;4.17;;;1.90;;
10313;SDS011;5202;49.138;10.090;2023-11-18T12:22:25;4.40;;;2.00;;
10313;SDS011;5202;49.138;10.090;2023-11-18T12:28:06;2.97;;;1.70;;
10313;SDS011;5202;49.138;10.090;2023-11-18T12:30:44;5.50;;;1.70;;
10313;SDS011;5202;49.138;10.090;2023-11-18T12:34:00;1.57;;;1.40;;
10313;SDS011;5202;49.138;10.090;2023-11-18T12:40:07;3.30;;;1.77;;
10313;SDS011;5202;49.138;10.090;2023-11-18T12:43:40;2.50;;;1.40;;
10313;SDS011;5202;49.138;10.090;2023-11-18T12:46:31;1.53;;;1.43;;
10313;SDS011;5202;49.138;10.090;2023-11-18T12:49:20;1.83;;;1.20;;
10313;SDS011;5202;49.138;10.090;2023-11-18T12:51:51;2.13;;;1.53;;
10313;SDS011;5202;49.138;10.090;2023-11-18T12:54:23;4.20;;;1.40;;
10313;SDS011;5202;49.138;10.090;2023-11-18T12:56:55;3.17;;;1.37;;
10313;SDS011;5202;49.138;10.090;2023-11-18T12:59:24;2.47;;;1.37;;
10313;SDS011;5202;49.138;10.090;2023-11-18T13:01:53;4.40;;;1.70;;
10313;SDS011;5202;49.138;10.090;2023-11-18T13:04:24;1.50;;;1.40;;
10313;SDS011;5202;49.138;10.090;2023-11-18T13:06:55;3.67;;;1.60;;
10313;SDS011;5202;49.138;10.090;2023-11-18T13:09:25;1.80;;;1.37;;
10313;SDS011;5202;49.138;10.090;2023-11-18T13:11:59;4.90;;;1.50;;
10313;SDS011;5202;49.138;10.090;2023-11-18T13:14:31;1.47;;;1.20;;
10313;SDS011;5202;49.138;10.090;2023-11-18T13:17:03;1.53;;;1.40;;
10313;SDS011;5202;49.138;10.090;2023-11-18T13:19:33;2.73;;;1.60;;
10313;SDS011;5202;49.138;10.090;2023-11-18T13:22:02;2.47;;;1.60;;
10313;SDS011;5202;49.138;10.090;2023-11-18T13:24:34;4.73;;;2.13;;
10313;SDS011;5202;49.138;10.090;2023-11-18T13:27:08;4.40;;;1.40;;
10313;SDS011;5202;49.138;10.090;2023-11-18T13:29:37;2.33;;;1.53;;
10313;SDS011;5202;49.138;10.090;2023-11-18T13:32:06;2.57;;;1.60;;
10313;SDS011;5202;49.138;10.090;2023-11-18T13:34:38;2.00;;;1.40;;
10313;SDS011;5202;49.138;10.090;2023-11-18T13:37:09;2.73;;;1.50;;
10313;SDS011;5202;49.138;10.090;2023-11-18T13:39:39;2.23;;;1.57;;
10313;SDS011;5202;49.138;10.090;2023-11-18T13:42:20;1.87;;;1.50;;
10313;SDS011;5202;49.138;10.090;2023-11-18T13:44:50;2.20;;;1.50;;
10313;SDS011;5202;49.138;10.090;2023-11-18T13:47:19;3.43;;;1.47;;
10313;SDS011;5202;49.138;10.090;2023-11-18T13:49:49;1.30;;;1.20;;
10313;SDS011;5202;49.138;10.090;2023-11-18T13:52:19;2.37;;;1.30;;
10313;SDS011;5202;49.138;10.090;2023-11-18T13:54:49;2.47;;;1.30;;
10313;SDS011;5202;49.138;10.090;2023-11-18T13:57:23;1.67;;;1.20;;
10313;SDS011;5202;49.138;10.090;2023-11-18T13:59:52;1.90;;;1.20;;
10313;SDS011;5202;49.138;10.090;2023-11-18T14:02:21;1.70;;;1.30;;
10313;SDS011;5202;49.138;10.090;2023-11-18T14:04:50;1.77;;;1.33;;
10313;SDS011;5202;49.138;10.090;2023-11-18T14:07:22;2.50;;;1.30;;
10313;SDS011;5202;49.138;10.090;2023-11-18T14:09:51;2.57;;;1.47;;
10313;SDS011;5202;49.138;10.090;2023-11-18T14:12:24;2.53;;;1.93;;
10313;SDS011;5202;49.138;10.090;2023-11-18T14:14:54;4.67;;;1.30;;
10313;SDS011;5202;49.138;10.090;2023-11-18T14:17:22;1.83;;;1.43;;
10313;SDS011;5202;49.138;10.090;2023-11-18T14:19:52;1.43;;;1.30;;
10313;SDS011;5202;49.138;10.090;2023-11-18T14:22:20;1.97;;;1.37;;
10313;SDS011;5202;49.138;10.090;2023-11-18T14:24:50;1.60;;;1.40;;
10313;SDS011;5202;49.138;10.090;2023-11-18T14:27:19;1.77;;;1.43;;
10313;SDS011;5202;49.138;10.090;2023-11-18T14:29:48;2.97;;;1.40;;
10313;SDS011;5202;49.138;10.090;2023-11-18T14:32:17;2.13;;;1.30;;
10313;SDS011;5202;49.138;10.090;2023-11-18T14:34:45;1.63;;;1.30;;
10313;SDS011;5202;49.138;10.090;2023-11-18T14:37:16;3.53;;;1.20;;
10313;SDS011;5202;49.138;10.090;2023-11-18T14:39:45;2.57;;;1.40;;
10313;SDS011;5202;49.138;10.090;2023-11-18T14:42:14;2.33;;;1.27;;
10313;SDS011;5202;49.138;10.090;2023-11-18T14:44:42;5.27;;;1.23;;
10313;SDS011;5202;49.138;10.090;2023-11-18T14:47:12;3.47;;;1.53;;
10313;SDS011;5202;49.138;10.090;2023-11-18T14:49:41;1.77;;;1.50;;
10313;SDS011;5202;49.138;10.090;2023-11-18T14:52:10;3.73;;;1.40;;
10313;SDS011;5202;49.138;10.090;2023-11-18T14:54:38;3.17;;;1.40;;
10313;SDS011;5202;49.138;10.090;2023-11-18T14:57:06;3.07;;;1.70;;
10313;SDS011;5202;49.138;10.090;2023-11-18T14:59:35;2.87;;;1.50;;
10313;SDS011;5202;49.138;10.090;2023-11-18T15:02:04;2.83;;;1.50;;
10313;SDS011;5202;49.138;10.090;2023-11-18T15:04:36;1.90;;;1.40;;
10313;SDS011;5202;49.138;10.090;2023-11-18T15:07:05;2.10;;;1.40;;